Time;durP1;ratioP1;P1;durP2;ratioP2;P2;SDS_P1;SDS_P2;PMS_P1;PMS_P2;Temp;Humidity;BMP_temperature;BMP_pressure;BME280_temperature;BME280_humidity;BME280_pressure;Samples;Min_cycle;Max_cycle;Signal;HPM_P1;HPM_P2
2024/02/12 00:00:35;;;;;;;5.23;2.27;;;9.20;99.90;;;;;;5072498;28;20426;-68
2024/02/12 00:03:02;;;;;;;3.70;2.80;;;9.20;99.90;;;;;;5072667;28;20420;-69
2024/02/12 00:05:28;;;;;;;5.30;3.20;;;9.10;99.90;;;;;;5072587;28;20430;-69
2024/02/12 00:07:54;;;;;;;3.37;2.60;;;9.10;99.90;;;;;;5072601;28;20495;-69
2024/02/12 00:10:20;;;;;;;2.90;2.33;;;9.10;99.90;;;;;;5072590;28;20200;-68
2024/02/12 00:12:45;;;;;;;3.27;3.00;;;9.10;99.90;;;;;;5072497;28;20167;-69
2024/02/12 00:15:12;;;;;;;3.07;2.77;;;9.00;99.90;;;;;;5072449;28;20388;-69
2024/02/12 00:17:41;;;;;;;4.37;2.93;;;9.00;99.90;;;;;;5072316;28;20186;-69
2024/02/12 00:20:10;;;;;;;3.20;2.87;;;9.00;99.90;;;;;;5072114;28;20411;-69
2024/02/12 00:22:42;;;;;;;6.20;2.83;;;9.00;99.90;;;;;;5072314;28;20409;-68
2024/02/12 00:25:11;;;;;;;4.70;3.00;;;8.90;99.90;;;;;;5072778;28;20522;-69
2024/02/12 00:27:39;;;;;;;5.10;3.93;;;8.70;99.90;;;;;;5071524;28;20432;-69
2024/02/12 00:30:08;;;;;;;4.00;3.30;;;8.70;99.90;;;;;;5072006;28;20444;-69
2024/02/12 00:32:34;;;;;;;4.60;3.70;;;8.60;99.90;;;;;;5070868;28;20405;-69
2024/02/12 00:35:00;;;;;;;3.80;3.27;;;8.60;99.90;;;;;;5072154;28;20454;-69
2024/02/12 00:37:26;;;;;;;4.07;2.97;;;8.60;99.90;;;;;;5072063;28;20416;-69
2024/02/12 00:39:52;;;;;;;6.53;3.63;;;8.60;99.90;;;;;;5070420;28;20486;-69
2024/02/12 00:42:19;;;;;;;4.10;3.07;;;8.60;99.90;;;;;;5072134;28;20197;-69
2024/02/12 00:44:45;;;;;;;8.30;4.37;;;8.70;99.90;;;;;;5070656;28;20490;-68
2024/02/12 00:47:10;;;;;;;4.77;4.27;;;8.70;99.90;;;;;;5071972;28;20428;-69
2024/02/12 00:49:39;;;;;;;11.30;3.50;;;8.80;99.90;;;;;;5071664;28;20679;-69
2024/02/12 00:52:07;;;;;;;4.73;3.30;;;8.80;99.90;;;;;;5072181;28;20182;-69
2024/02/12 00:54:35;;;;;;;5.53;3.27;;;8.90;99.90;;;;;;5071348;28;20432;-68
2024/02/12 00:57:01;;;;;;;8.63;4.80;;;9.00;99.90;;;;;;5071984;28;20446;-68
2024/02/12 00:59:26;;;;;;;5.10;3.63;;;9.00;99.90;;;;;;5071647;28;20446;-68
2024/02/12 01:01:53;;;;;;;5.50;4.00;;;9.10;99.90;;;;;;5071842;28;20835;-69
2024/02/12 01:04:19;;;;;;;7.23;4.80;;;9.20;99.90;;;;;;5071790;28;20253;-69
2024/02/12 01:06:44;;;;;;;10.13;4.40;;;9.20;99.90;;;;;;5071973;28;20503;-69
2024/02/12 01:09:12;;;;;;;6.60;4.27;;;9.20;99.90;;;;;;5070038;28;20201;-69
2024/02/12 01:11:38;;;;;;;6.50;4.63;;;9.30;99.90;;;;;;5071751;28;20257;-69
2024/02/12 01:14:04;;;;;;;5.63;3.73;;;9.30;99.90;;;;;;5071921;28;20436;-68
2024/02/12 01:16:32;;;;;;;4.80;4.07;;;9.40;99.90;;;;;;5071606;28;20416;-69
2024/02/12 01:18:58;;;;;;;6.43;4.77;;;9.40;99.90;;;;;;5071411;28;20396;-69
2024/02/12 01:21:25;;;;;;;8.40;5.30;;;9.40;99.90;;;;;;5071779;28;20401;-69
2024/02/12 01:23:51;;;;;;;7.87;5.93;;;9.40;99.90;;;;;;5071508;28;20405;-69
2024/02/12 01:26:17;;;;;;;8.30;5.70;;;9.30;99.90;;;;;;5071541;28;20427;-69
2024/02/12 01:28:43;;;;;;;8.60;5.53;;;9.30;99.90;;;;;;5071319;28;20169;-69
2024/02/12 01:31:19;;;;;;;11.60;5.63;;;9.30;99.90;;;;;;5071525;28;20938;-69
2024/02/12 01:33:46;;;;;;;8.17;6.33;;;9.30;99.90;;;;;;5071450;28;20237;-69
2024/02/12 01:36:13;;;;;;;10.00;7.67;;;9.20;99.90;;;;;;5071324;28;20448;-68
2024/02/12 01:38:39;;;;;;;6.90;6.10;;;9.20;99.90;;;;;;5071187;28;20400;-69
2024/02/12 01:41:04;;;;;;;8.13;6.33;;;9.20;99.90;;;;;;5071459;28;20404;-69
2024/02/12 01:43:30;;;;;;;9.03;6.43;;;9.20;99.90;;;;;;5071362;28;20965;-69
2024/02/12 01:45:59;;;;;;;8.87;6.53;;;9.10;99.90;;;;;;5071330;28;20182;-69
2024/02/12 01:48:26;;;;;;;9.47;6.90;;;9.10;99.90;;;;;;5070153;28;20261;-69
2024/02/12 01:50:52;;;;;;;9.27;6.10;;;9.10;99.90;;;;;;5070988;28;20451;-69
2024/02/12 01:53:18;;;;;;;13.63;7.03;;;9.20;99.90;;;;;;5071220;28;20448;-69
2024/02/12 01:55:45;;;;;;;10.20;6.97;;;9.20;99.90;;;;;;5071215;28;20417;-69
2024/02/12 01:58:16;;;;;;;10.50;6.77;;;9.20;99.90;;;;;;5071291;28;20400;-69
2024/02/12 02:00:45;;;;;;;9.67;7.10;;;9.30;99.90;;;;;;5071765;28;20799;-69
2024/02/12 02:03:11;;;;;;;9.10;6.57;;;9.30;99.90;;;;;;5071206;28;20409;-68
2024/02/12 02:05:37;;;;;;;15.87;8.30;;;9.30;99.90;;;;;;5071130;28;20411;-68
2024/02/12 02:08:03;;;;;;;13.03;7.97;;;9.40;99.90;;;;;;5073639;28;20771;-69
2024/02/12 02:10:29;;;;;;;10.33;7.87;;;9.30;99.90;;;;;;5074558;28;20639;-69
2024/02/12 02:12:56;;;;;;;11.70;7.93;;;9.30;99.90;;;;;;5074765;28;20402;-68
2024/02/12 02:15:22;;;;;;;11.83;8.27;;;9.30;99.90;;;;;;5074718;28;20392;-69
2024/02/12 02:17:48;;;;;;;10.03;7.60;;;9.30;99.90;;;;;;5074640;28;20454;-69
2024/02/12 02:20:15;;;;;;;12.87;7.57;;;9.30;99.90;;;;;;5074733;28;20174;-68
2024/02/12 02:22:40;;;;;;;10.47;7.50;;;9.30;99.90;;;;;;5074611;28;20514;-69
2024/02/12 02:25:09;;;;;;;11.30;8.03;;;9.30;99.90;;;;;;5074534;28;20458;-69
2024/02/12 02:27:35;;;;;;;11.77;8.47;;;9.40;99.90;;;;;;5074444;28;20186;-69
2024/02/12 02:30:07;;;;;;;10.60;8.20;;;9.40;99.90;;;;;;5074189;28;20859;-69
2024/02/12 02:32:33;;;;;;;12.27;8.97;;;9.20;99.90;;;;;;5074465;28;20196;-69
2024/02/12 02:34:59;;;;;;;12.17;8.70;;;9.30;99.90;;;;;;5074396;28;20397;-69
2024/02/12 02:37:25;;;;;;;14.70;9.53;;;9.30;99.90;;;;;;5074452;28;20942;-68
2024/02/12 02:39:50;;;;;;;12.77;9.70;;;9.30;99.90;;;;;;5074084;28;20167;-69
2024/02/12 02:42:16;;;;;;;14.80;8.60;;;9.20;99.90;;;;;;5074259;28;20675;-69
2024/02/12 02:44:43;;;;;;;15.53;10.33;;;9.20;99.90;;;;;;5072975;28;20174;-68
2024/02/12 02:47:10;;;;;;;18.97;9.70;;;9.20;99.90;;;;;;5074036;28;20212;-68
2024/02/12 02:49:36;;;;;;;15.47;9.30;;;9.30;99.90;;;;;;5073800;28;20799;-69
2024/02/12 02:52:02;;;;;;;16.20;11.07;;;9.20;99.90;;;;;;5072599;28;20470;-69
2024/02/12 02:54:28;;;;;;;16.83;9.30;;;9.20;99.90;;;;;;5074187;28;20169;-69
2024/02/12 02:56:53;;;;;;;15.10;10.20;;;9.20;99.90;;;;;;5073959;28;20424;-69
2024/02/12 02:59:20;;;;;;;15.47;10.27;;;9.20;99.90;;;;;;5073749;28;20216;-69
2024/02/12 03:01:45;;;;;;;19.00;10.73;;;9.20;99.90;;;;;;5073808;28;20177;-69
2024/02/12 03:04:13;;;;;;;15.20;10.53;;;9.20;99.90;;;;;;5073852;28;20401;-69
2024/02/12 03:06:40;;;;;;;16.60;10.80;;;9.20;99.90;;;;;;5073773;28;20217;-68
2024/02/12 03:09:06;;;;;;;16.80;10.83;;;9.20;99.90;;;;;;5072116;28;20450;-69
2024/02/12 03:11:32;;;;;;;22.40;12.00;;;9.20;99.90;;;;;;5074112;28;20400;-68
2024/02/12 03:13:57;;;;;;;13.73;9.60;;;9.20;99.90;;;;;;5073649;28;20400;-69
2024/02/12 03:16:23;;;;;;;16.10;10.50;;;9.20;99.90;;;;;;5072449;28;20186;-68
2024/02/12 03:18:48;;;;;;;19.27;11.73;;;9.20;99.90;;;;;;5072909;28;20208;-69
2024/02/12 03:21:21;;;;;;;15.60;11.70;;;9.20;99.90;;;;;;5073460;28;20162;-69
2024/02/12 03:23:48;;;;;;;20.80;11.87;;;9.20;99.90;;;;;;5073818;28;20272;-69
2024/02/12 03:26:17;;;;;;;19.80;12.50;;;9.20;99.90;;;;;;5073354;28;20428;-68
2024/02/12 03:28:43;;;;;;;16.67;10.73;;;9.20;99.90;;;;;;5073097;28;20408;-69
2024/02/12 03:31:09;;;;;;;18.80;11.50;;;9.10;99.90;;;;;;5073264;28;20447;-68
2024/02/12 03:33:36;;;;;;;19.90;11.70;;;9.20;99.90;;;;;;5073291;28;20892;-69
2024/02/12 03:36:02;;;;;;;20.50;10.73;;;9.20;99.90;;;;;;5073113;28;20428;-69
2024/02/12 03:38:28;;;;;;;19.73;13.10;;;9.20;99.90;;;;;;5073182;28;20396;-69
2024/02/12 03:40:54;;;;;;;19.77;12.00;;;9.30;99.90;;;;;;5072896;28;20858;-68
2024/02/12 03:43:24;;;;;;;21.23;12.27;;;9.30;99.90;;;;;;5071775;28;20181;-69
2024/02/12 03:45:50;;;;;;;20.90;12.40;;;9.30;99.90;;;;;;5072973;28;21016;-69
2024/02/12 04:01:56;;;;;;;17.60;10.80;;;9.50;99.90;;;;;;5072708;28;20418;-69
2024/02/12 04:04:21;;;;;;;14.70;9.90;;;9.50;99.90;;;;;;5072506;28;20400;-69
2024/02/12 04:06:47;;;;;;;14.37;10.50;;;9.50;99.90;;;;;;5072515;28;20420;-69
2024/02/12 04:09:12;;;;;;;19.70;12.73;;;9.50;99.90;;;;;;5070951;28;20205;-69
2024/02/12 04:11:42;;;;;;;18.20;11.17;;;9.50;99.90;;;;;;5072593;28;20158;-69
2024/02/12 04:14:09;;;;;;;19.57;11.90;;;9.50;99.90;;;;;;5071298;28;20575;-69
2024/02/12 04:16:39;;;;;;;13.67;10.00;;;9.50;99.90;;;;;;5072300;28;20424;-69
2024/02/12 04:19:05;;;;;;;19.47;10.73;;;9.50;99.90;;;;;;5070774;28;20477;-69
2024/02/12 04:21:32;;;;;;;15.63;10.47;;;9.40;99.90;;;;;;5072353;28;20408;-69
2024/02/12 04:23:58;;;;;;;20.37;13.60;;;9.50;99.90;;;;;;5072279;28;20411;-69
2024/02/12 04:26:24;;;;;;;21.10;11.20;;;9.40;99.90;;;;;;5070892;28;20432;-68
2024/02/12 04:28:49;;;;;;;19.07;11.13;;;9.40;99.90;;;;;;5071751;28;20396;-69
2024/02/12 04:31:15;;;;;;;20.73;11.73;;;9.30;99.90;;;;;;5071486;28;20560;-69
2024/02/12 04:33:41;;;;;;;24.83;10.83;;;9.30;99.90;;;;;;5072128;28;20169;-69
2024/02/12 04:36:14;;;;;;;20.93;11.20;;;9.30;99.90;;;;;;5072068;28;20193;-69
2024/02/12 04:38:40;;;;;;;14.40;11.87;;;9.30;99.90;;;;;;5071957;28;20401;-68
2024/02/12 04:41:06;;;;;;;17.90;11.70;;;9.30;99.90;;;;;;5072080;28;20487;-69
2024/02/12 04:43:35;;;;;;;18.93;11.63;;;9.30;99.90;;;;;;5072036;28;20173;-69
2024/02/12 04:46:00;;;;;;;17.43;11.53;;;9.30;99.90;;;;;;5071924;28;20424;-69
2024/02/12 04:48:26;;;;;;;23.57;12.13;;;9.40;99.90;;;;;;5071947;28;20763;-69
2024/02/12 04:50:52;;;;;;;29.50;10.90;;;9.40;99.90;;;;;;5071649;28;20606;-69
2024/02/12 04:53:18;;;;;;;18.93;10.77;;;9.30;99.90;;;;;;5070606;28;20450;-69
2024/02/12 04:55:45;;;;;;;15.90;9.97;;;9.40;99.90;;;;;;5071807;28;20182;-69
2024/02/12 04:58:11;;;;;;;14.17;10.67;;;9.40;99.90;;;;;;5071855;28;20443;-69
2024/02/12 05:00:36;;;;;;;17.33;10.00;;;9.40;99.90;;;;;;5070474;28;20842;-69
2024/02/12 05:03:06;;;;;;;16.93;11.43;;;9.20;99.90;;;;;;5071755;28;20633;-69
2024/02/12 05:05:31;;;;;;;16.37;11.90;;;9.20;99.90;;;;;;5071768;28;20194;-69
2024/02/12 05:07:57;;;;;;;14.10;10.17;;;9.30;99.90;;;;;;5071758;28;20436;-69
2024/02/12 05:10:22;;;;;;;18.90;11.43;;;9.20;99.90;;;;;;5071414;28;20602;-68
2024/02/12 05:12:50;;;;;;;20.73;10.57;;;9.30;99.90;;;;;;5071679;28;20166;-68
2024/02/12 05:15:15;;;;;;;16.70;12.00;;;9.30;99.90;;;;;;5071731;28;20162;-69
2024/02/12 05:17:55;;;;;;;14.20;10.10;;;9.20;99.90;;;;;;5071583;28;20899;-69
2024/02/12 05:23:08;;;;;;;15.50;11.43;;;9.20;99.90;;;;;;5072098;28;20441;-69
2024/02/12 05:25:34;;;;;;;18.73;10.83;;;9.20;99.90;;;;;;5071802;28;20542;-69
2024/02/12 05:28:00;;;;;;;19.27;10.50;;;9.20;99.90;;;;;;5071603;28;20939;-69
2024/02/12 05:30:26;;;;;;;15.33;11.60;;;9.20;99.90;;;;;;5071221;28;20543;-69
2024/02/12 05:32:52;;;;;;;20.03;11.77;;;9.20;99.90;;;;;;5071450;28;20158;-70
2024/02/12 05:35:18;;;;;;;19.63;10.73;;;9.20;99.90;;;;;;5071646;28;20155;-70
2024/02/12 05:37:44;;;;;;;17.03;10.37;;;9.20;99.90;;;;;;5071510;28;20533;-69
2024/02/12 05:40:10;;;;;;;20.97;12.23;;;9.20;99.90;;;;;;5071658;28;20404;-69
2024/02/12 05:42:36;;;;;;;16.60;11.40;;;9.20;99.90;;;;;;5073632;28;20170;-69
2024/02/12 05:45:02;;;;;;;20.10;11.33;;;9.20;99.90;;;;;;5075432;28;20514;-69
2024/02/12 05:47:27;;;;;;;19.73;11.90;;;9.20;99.90;;;;;;5073955;28;20584;-69
2024/02/12 05:49:54;;;;;;;13.93;9.70;;;9.20;99.90;;;;;;5075064;28;20444;-70
2024/02/12 05:52:20;;;;;;;18.47;11.17;;;9.10;99.90;;;;;;5075128;28;20580;-69
2024/02/12 05:54:46;;;;;;;22.57;11.70;;;9.10;99.90;;;;;;5075266;28;20415;-70
2024/02/12 05:57:12;;;;;;;18.70;11.37;;;9.00;99.90;;;;;;5075131;28;20634;-69
2024/02/12 05:59:38;;;;;;;20.00;9.90;;;8.90;99.90;;;;;;5074910;28;20167;-69
2024/02/12 06:02:04;;;;;;;20.03;10.17;;;8.90;99.90;;;;;;5074991;28;20198;-70
2024/02/12 06:04:30;;;;;;;15.27;10.57;;;8.90;99.90;;;;;;5075046;28;20170;-69
2024/02/12 06:06:57;;;;;;;14.07;10.67;;;8.90;99.90;;;;;;5074876;28;20427;-69
2024/02/12 06:09:22;;;;;;;17.00;10.67;;;8.90;99.90;;;;;;5073422;28;20483;-69
2024/02/12 06:11:48;;;;;;;18.60;11.43;;;8.80;99.90;;;;;;5074966;28;20906;-69
2024/02/12 06:14:13;;;;;;;18.60;12.07;;;8.80;99.90;;;;;;5074768;28;20170;-70
2024/02/12 06:16:39;;;;;;;15.43;9.80;;;8.70;99.90;;;;;;5074678;28;20182;-70
2024/02/12 06:19:07;;;;;;;20.47;11.60;;;8.70;99.90;;;;;;5074514;28;20208;-70
2024/02/12 06:21:32;;;;;;;19.03;11.10;;;8.60;99.90;;;;;;5074638;28;20173;-69
2024/02/12 06:23:58;;;;;;;22.17;11.30;;;8.70;99.90;;;;;;5074591;28;20400;-70
2024/02/12 06:26:24;;;;;;;17.40;10.93;;;8.70;99.90;;;;;;5074543;28;20783;-69
2024/02/12 06:28:50;;;;;;;17.23;11.17;;;8.70;99.90;;;;;;5074251;28;20412;-69
2024/02/12 06:31:16;;;;;;;23.30;12.53;;;8.80;99.90;;;;;;5074412;28;20201;-69
2024/02/12 06:33:41;;;;;;;16.83;11.20;;;8.70;99.90;;;;;;5074459;28;20766;-69
2024/02/12 06:36:07;;;;;;;19.97;11.63;;;8.70;99.90;;;;;;5074361;28;20419;-69
2024/02/12 06:38:33;;;;;;;19.90;12.30;;;8.80;99.90;;;;;;5074377;28;20194;-69
2024/02/12 06:41:00;;;;;;;18.30;11.23;;;8.80;99.90;;;;;;5074207;28;20456;-69
2024/02/12 06:43:26;;;;;;;15.63;9.57;;;8.70;99.90;;;;;;5074419;28;20245;-69
2024/02/12 06:45:52;;;;;;;17.37;10.87;;;8.80;99.90;;;;;;5074178;28;20873;-69
2024/02/12 06:48:17;;;;;;;19.53;9.70;;;8.70;99.90;;;;;;5074213;28;20397;-69
2024/02/12 06:50:43;;;;;;;24.43;10.70;;;8.80;99.90;;;;;;5073773;28;20774;-69
2024/02/12 06:53:09;;;;;;;15.10;10.33;;;8.70;99.90;;;;;;5073183;28;20544;-69
2024/02/12 06:55:34;;;;;;;16.60;10.20;;;8.80;99.90;;;;;;5073990;28;20176;-69
2024/02/12 06:58:00;;;;;;;18.23;10.20;;;8.80;99.90;;;;;;5072754;28;20652;-70
2024/02/12 07:00:25;;;;;;;15.97;9.97;;;8.80;99.90;;;;;;5073674;28;20170;-69
2024/02/12 07:02:51;;;;;;;23.10;9.90;;;8.90;99.90;;;;;;5073928;28;20178;-70
2024/02/12 07:05:17;;;;;;;14.50;10.37;;;8.90;99.90;;;;;;5073825;28;20540;-69
2024/02/12 07:07:43;;;;;;;19.70;9.77;;;8.90;99.90;;;;;;5073773;28;20182;-69
2024/02/12 07:10:09;;;;;;;17.07;10.53;;;8.90;99.90;;;;;;5073482;28;20950;-69
2024/02/12 07:12:38;;;;;;;14.70;9.83;;;9.00;99.90;;;;;;5072418;28;20492;-70
2024/02/12 07:15:08;;;;;;;17.53;12.27;;;9.00;99.90;;;;;;5073709;28;20162;-69
2024/02/12 07:17:34;;;;;;;17.80;11.60;;;9.00;99.90;;;;;;5073429;28;20428;-69
2024/02/12 07:20:02;;;;;;;15.90;11.80;;;8.90;99.90;;;;;;5073291;28;20404;-69
2024/02/12 07:22:27;;;;;;;15.30;10.50;;;8.90;99.90;;;;;;5073551;28;21053;-69
2024/02/12 07:24:53;;;;;;;21.10;12.27;;;8.90;99.90;;;;;;5073568;28;20413;-69
2024/02/12 07:27:18;;;;;;;17.90;12.07;;;8.80;99.90;;;;;;5073398;28;20194;-69
2024/02/12 07:29:48;;;;;;;14.60;10.50;;;8.80;99.90;;;;;;5073180;28;20190;-69
2024/02/12 07:32:14;;;;;;;20.40;11.40;;;8.80;99.90;;;;;;5073362;28;20186;-69
2024/02/12 07:34:40;;;;;;;18.27;11.57;;;8.90;99.90;;;;;;5073233;28;20435;-69
2024/02/12 07:37:06;;;;;;;16.03;10.67;;;8.90;99.90;;;;;;5073209;28;20860;-70
2024/02/12 07:39:31;;;;;;;17.63;11.10;;;8.80;99.90;;;;;;5073049;28;20400;-70
2024/02/12 07:42:00;;;;;;;20.90;11.47;;;8.80;99.90;;;;;;5073415;28;20596;-69
2024/02/12 07:44:28;;;;;;;21.00;11.00;;;8.80;99.90;;;;;;5073074;28;20166;-69
2024/02/12 07:46:54;;;;;;;17.27;10.87;;;8.80;99.90;;;;;;5072904;28;20828;-70
2024/02/12 07:49:20;;;;;;;17.70;10.50;;;8.80;99.90;;;;;;5072707;28;20444;-69
2024/02/12 07:51:47;;;;;;;17.80;13.03;;;8.90;99.90;;;;;;5072655;28;20158;-69
2024/02/12 07:54:13;;;;;;;17.00;9.60;;;8.90;99.90;;;;;;5072687;28;20504;-70
2024/02/12 07:56:41;;;;;;;14.70;9.87;;;9.00;99.90;;;;;;5072532;28;20523;-69
2024/02/12 07:59:06;;;;;;;16.07;8.97;;;9.00;99.90;;;;;;5072282;28;20411;-69
2024/02/12 08:01:32;;;;;;;17.23;10.23;;;9.10;99.90;;;;;;5072609;28;20787;-66
2024/02/12 08:03:57;;;;;;;14.60;9.07;;;9.00;99.90;;;;;;5072667;28;20197;-66
2024/02/12 08:06:24;;;;;;;19.13;10.67;;;9.10;99.90;;;;;;5072596;28;20319;-66
2024/02/12 08:08:49;;;;;;;16.67;9.40;;;9.20;99.90;;;;;;5072415;28;20199;-67
2024/02/12 08:11:17;;;;;;;10.90;8.47;;;9.30;99.90;;;;;;5072478;28;20452;-66
2024/02/12 08:13:43;;;;;;;10.90;8.40;;;9.40;99.90;;;;;;5072452;28;20191;-66
2024/02/12 08:16:08;;;;;;;30.67;9.70;;;9.40;99.90;;;;;;5072379;28;20420;-66
2024/02/12 08:18:36;;;;;;;22.90;9.40;;;9.40;99.90;;;;;;5072396;28;20767;-66
2024/02/12 08:21:01;;;;;;;10.23;8.43;;;9.40;99.90;;;;;;5072111;28;20174;-66
2024/02/12 08:23:27;;;;;;;14.27;8.03;;;9.40;99.90;;;;;;5072379;28;20412;-67
2024/02/12 08:25:52;;;;;;;8.80;6.67;;;9.50;99.90;;;;;;5072243;28;20186;-67
2024/02/12 08:28:22;;;;;;;9.63;7.70;;;9.60;99.90;;;;;;5072238;28;20194;-66
2024/02/12 08:30:48;;;;;;;12.83;8.13;;;9.60;99.90;;;;;;5071893;28;20194;-67
2024/02/12 08:33:14;;;;;;;14.40;8.10;;;9.60;99.90;;;;;;5072405;28;20407;-66
2024/02/12 08:35:39;;;;;;;10.97;5.57;;;9.80;99.90;;;;;;5072395;28;20189;-67
2024/02/12 08:38:08;;;;;;;10.00;6.70;;;9.90;99.90;;;;;;5072161;28;20166;-67
2024/02/12 08:40:34;;;;;;;12.90;9.30;;;9.90;99.90;;;;;;5071842;28;20181;-67
2024/02/12 08:42:59;;;;;;;13.83;6.63;;;10.20;99.90;;;;;;5071955;28;20400;-66
2024/02/12 08:45:25;;;;;;;7.23;5.73;;;10.10;99.90;;;;;;5071818;28;20862;-66
2024/02/12 08:47:51;;;;;;;7.90;5.57;;;10.20;99.90;;;;;;5072178;28;20645;-67
2024/02/12 08:50:17;;;;;;;6.93;5.27;;;10.40;99.90;;;;;;5071729;28;20553;-67
2024/02/12 08:52:43;;;;;;;8.27;6.10;;;10.30;99.90;;;;;;5071803;28;20174;-66
2024/02/12 08:55:11;;;;;;;9.80;5.23;;;10.40;99.90;;;;;;5071967;28;20392;-66
2024/02/12 08:57:41;;;;;;;8.47;4.60;;;10.50;99.90;;;;;;5070416;28;20482;-66
2024/02/12 09:00:09;;;;;;;5.73;5.10;;;10.60;99.90;;;;;;5071589;28;20495;-66
2024/02/12 09:02:35;;;;;;;8.70;5.40;;;10.50;99.90;;;;;;5071799;28;20416;-66
2024/02/12 09:05:02;;;;;;;9.63;5.83;;;10.60;99.90;;;;;;5071843;28;20496;-67
2024/02/12 09:07:28;;;;;;;10.27;4.83;;;10.60;99.90;;;;;;5071663;28;20189;-66
2024/02/12 09:09:54;;;;;;;10.63;5.60;;;10.80;99.90;;;;;;5071417;28;20487;-66
2024/02/12 09:12:20;;;;;;;10.53;5.90;;;10.70;99.90;;;;;;5071696;28;20557;-66
2024/02/12 09:14:48;;;;;;;8.50;5.37;;;10.70;99.90;;;;;;5071617;28;20641;-66
2024/02/12 09:17:15;;;;;;;8.53;5.60;;;10.60;99.90;;;;;;5077453;28;20236;-67
2024/02/12 09:19:41;;;;;;;7.33;5.47;;;10.40;99.90;;;;;;5078045;28;20396;-67
2024/02/12 09:22:09;;;;;;;9.13;5.50;;;10.30;99.90;;;;;;5078285;28;20396;-67
2024/02/12 09:24:36;;;;;;;9.37;6.70;;;10.30;99.90;;;;;;5078225;28;20412;-67
2024/02/12 09:27:02;;;;;;;10.13;5.70;;;10.50;99.90;;;;;;5078071;28;20481;-67
2024/02/12 09:29:28;;;;;;;9.23;4.63;;;10.80;99.90;;;;;;5077914;28;20447;-67
2024/02/12 09:31:53;;;;;;;9.07;6.53;;;11.20;99.90;;;;;;5078368;28;20166;-67
2024/02/12 09:34:19;;;;;;;9.73;4.70;;;11.60;99.90;;;;;;5078345;28;20162;-67
2024/02/12 09:36:45;;;;;;;11.33;4.87;;;12.20;99.90;;;;;;5078243;28;20186;-66
2024/02/12 09:39:10;;;;;;;10.27;5.53;;;12.80;99.90;;;;;;5077980;28;20209;-65
2024/02/12 09:41:37;;;;;;;5.93;4.47;;;13.70;99.90;;;;;;5078178;28;20762;-66
2024/02/12 09:44:06;;;;;;;6.73;4.10;;;15.30;99.90;;;;;;5078211;28;20650;-66
2024/02/12 09:46:36;;;;;;;6.90;4.10;;;17.00;99.90;;;;;;5078047;28;20452;-67
2024/02/12 09:49:03;;;;;;;7.63;4.50;;;18.40;99.90;;;;;;5078000;28;20462;-67
2024/02/12 09:51:30;;;;;;;9.73;4.13;;;19.00;95.40;;;;;;5078060;28;20419;-67
2024/02/12 09:53:57;;;;;;;4.93;4.13;;;19.00;82.20;;;;;;5077929;28;20506;-67
2024/02/12 09:56:24;;;;;;;13.67;8.47;;;18.90;80.40;;;;;;5078340;28;20412;-67
2024/02/12 09:58:50;;;;;;;5.47;4.00;;;19.30;85.40;;;;;;5077767;28;20610;-67
2024/02/12 10:01:16;;;;;;;9.10;4.23;;;20.00;74.60;;;;;;5078280;28;20404;-67
2024/02/12 10:03:43;;;;;;;5.60;3.70;;;19.30;65.80;;;;;;5078015;28;20224;-67
2024/02/12 10:06:12;;;;;;;7.67;3.67;;;18.30;67.20;;;;;;5077894;28;20424;-67
2024/02/12 10:08:38;;;;;;;5.87;4.00;;;17.90;73.30;;;;;;5077816;28;20400;-67
2024/02/12 10:11:05;;;;;;;5.30;3.07;;;17.80;79.70;;;;;;5077789;28;20992;-67
2024/02/12 10:13:31;;;;;;;6.03;3.33;;;17.50;79.20;;;;;;5077897;28;20181;-69
2024/02/12 10:15:57;;;;;;;4.77;3.17;;;17.90;83.90;;;;;;5076650;28;20794;-69
2024/02/12 10:18:22;;;;;;;9.03;3.03;;;18.80;86.90;;;;;;5077904;28;20166;-69
2024/02/12 10:20:48;;;;;;;6.73;3.00;;;19.00;74.10;;;;;;5077627;28;20170;-69
2024/02/12 10:23:15;;;;;;;5.83;2.77;;;19.00;70.70;;;;;;5077807;28;20212;-69
2024/02/12 10:25:50;;;;;;;5.90;2.60;;;19.10;68.80;;;;;;5077630;28;20448;-69
2024/02/12 10:28:17;;;;;;;5.87;3.43;;;18.90;67.30;;;;;;5072970;28;20416;-69
2024/02/12 10:30:43;;;;;;;4.17;2.80;;;18.30;66.80;;;;;;5074231;28;20456;-69
2024/02/12 10:33:10;;;;;;;4.73;3.13;;;18.10;69.20;;;;;;5073208;28;20412;-69
2024/02/12 10:35:41;;;;;;;9.03;2.30;;;17.70;69.00;;;;;;5074438;28;20409;-68
2024/02/12 10:38:07;;;;;;;4.47;2.43;;;17.90;71.50;;;;;;5074457;28;20401;-69
2024/02/12 10:41:03;;;;;;;5.87;2.83;;;18.20;73.50;;;;;;5074103;28;20752;-69
2024/02/12 10:43:34;;;;;;;9.43;3.40;;;18.30;69.80;;;;;;5074423;28;20631;-69
2024/02/12 10:46:03;;;;;;;3.27;2.23;;;18.40;70.60;;;;;;5074170;28;20421;-69
2024/02/12 10:48:31;;;;;;;4.20;2.27;;;18.30;69.90;;;;;;5074465;28;20408;-69
2024/02/12 10:50:59;;;;;;;4.00;1.73;;;17.80;68.80;;;;;;5073868;28;20946;-69
2024/02/12 10:53:28;;;;;;;3.90;2.60;;;17.60;70.90;;;;;;5074034;28;20797;-69
2024/02/12 10:55:54;;;;;;;5.27;2.50;;;17.20;71.90;;;;;;5072816;28;20447;-69
2024/02/12 10:58:20;;;;;;;2.80;1.70;;;16.60;72.10;;;;;;5074073;28;20404;-69
2024/02/12 11:00:57;;;;;;;2.63;2.00;;;16.20;74.20;;;;;;5074603;28;20629;-69
2024/02/12 11:03:51;;;;;;;4.53;2.50;;;15.60;74.70;;;;;;5074047;28;20489;-69
2024/02/12 11:06:18;;;;;;;3.10;2.00;;;15.30;78.80;;;;;;5071757;28;20448;-69
2024/02/12 11:08:48;;;;;;;4.10;2.00;;;15.10;84.20;;;;;;5073637;28;20415;-69
2024/02/12 11:11:21;;;;;;;4.40;2.07;;;14.80;88.20;;;;;;5073606;28;20463;-69
2024/02/12 11:14:18;;;;;;;2.10;1.90;;;14.60;91.70;;;;;;5073700;28;20407;-68
2024/02/12 11:16:44;;;;;;;3.60;2.83;;;14.40;95.40;;;;;;5071129;28;20444;-69
2024/02/12 11:19:16;;;;;;;1.70;1.60;;;14.20;99.70;;;;;;5073420;28;20745;-69
2024/02/12 11:21:44;;;;;;;4.20;2.00;;;14.20;99.90;;;;;;5073467;28;20166;-68
2024/02/12 11:24:11;;;;;;;5.00;2.83;;;14.40;99.90;;;;;;5073512;28;20411;-68
2024/02/12 11:26:41;;;;;;;4.00;2.10;;;14.70;99.90;;;;;;5073464;28;20446;-68
2024/02/12 11:29:07;;;;;;;2.30;1.90;;;14.90;99.90;;;;;;5073235;28;20397;-69
2024/02/12 11:31:37;;;;;;;2.40;2.20;;;14.90;99.90;;;;;;5073452;28;20423;-69
2024/02/12 11:34:20;;;;;;;1.73;1.60;;;15.00;99.90;;;;;;5072040;28;20458;-69
2024/02/12 11:36:59;;;;;;;2.37;1.93;;;14.90;98.90;;;;;;5073207;28;20416;-69
2024/02/12 11:39:25;;;;;;;3.73;2.03;;;14.90;99.50;;;;;;5072651;28;20399;-69
2024/02/12 11:41:51;;;;;;;6.90;2.80;;;15.10;99.90;;;;;;5071850;28;20448;-69
2024/02/12 11:44:16;;;;;;;3.60;2.57;;;15.30;99.10;;;;;;5073114;28;20810;-68
2024/02/12 11:46:42;;;;;;;1.93;1.50;;;16.40;99.90;;;;;;5071670;28;20225;-69
2024/02/12 11:49:08;;;;;;;3.03;2.30;;;17.70;92.30;;;;;;5072863;28;20625;-68
2024/02/12 11:51:35;;;;;;;5.30;1.93;;;18.10;81.60;;;;;;5071745;28;20174;-69
2024/02/12 11:54:02;;;;;;;6.87;2.27;;;17.80;70.10;;;;;;5072730;28;20775;-68
2024/02/12 11:56:27;;;;;;;4.43;1.77;;;17.20;68.10;;;;;;5072844;28;20416;-69
2024/02/12 11:58:54;;;;;;;3.77;1.83;;;16.90;71.60;;;;;;5072612;28;20412;-69
2024/02/12 12:01:21;;;;;;;3.17;2.60;;;16.30;70.30;;;;;;5072751;28;20162;-69
2024/02/12 12:03:46;;;;;;;4.20;2.60;;;16.00;73.40;;;;;;5072667;28;20465;-69
2024/02/12 12:06:17;;;;;;;4.60;2.20;;;15.90;76.70;;;;;;5072658;28;20545;-69
2024/02/12 12:08:46;;;;;;;5.73;2.50;;;15.60;80.00;;;;;;5072353;28;20166;-69
2024/02/12 12:11:13;;;;;;;4.90;2.90;;;15.50;84.60;;;;;;5072539;28;20923;-69
2024/02/12 12:13:39;;;;;;;4.90;2.37;;;15.30;90.80;;;;;;5071206;28;20786;-69
2024/02/12 12:16:06;;;;;;;3.50;1.73;;;14.90;96.40;;;;;;5072493;28;20433;-69
2024/02/12 12:18:32;;;;;;;3.33;2.10;;;14.50;99.90;;;;;;5072468;28;20159;-69
2024/02/12 12:20:57;;;;;;;3.10;1.70;;;14.20;99.90;;;;;;5072122;28;20486;-68
2024/02/12 12:23:23;;;;;;;2.80;2.00;;;14.00;99.90;;;;;;5072273;28;20459;-68
2024/02/12 12:25:52;;;;;;;2.73;2.30;;;14.10;99.90;;;;;;5072121;28;20209;-68
2024/02/12 12:28:17;;;;;;;5.20;2.30;;;14.40;99.90;;;;;;5072251;28;20308;-68
2024/02/12 12:30:43;;;;;;;5.83;2.87;;;14.90;99.90;;;;;;5071939;28;20504;-68
2024/02/12 12:33:08;;;;;;;4.67;2.37;;;15.30;99.90;;;;;;5072157;28;20537;-68
2024/02/12 12:35:34;;;;;;;6.50;2.20;;;15.60;99.90;;;;;;5072168;28;20168;-68
2024/02/12 12:38:08;;;;;;;2.10;1.90;;;15.80;99.90;;;;;;5072128;28;20166;-68
2024/02/12 12:40:34;;;;;;;3.67;2.00;;;15.80;99.90;;;;;;5071880;28;20176;-68
2024/02/12 12:43:01;;;;;;;4.87;2.20;;;15.90;99.90;;;;;;5071979;28;20400;-68
2024/02/12 12:45:27;;;;;;;3.43;1.80;;;16.10;99.90;;;;;;5072065;28;20166;-68
2024/02/12 12:47:52;;;;;;;4.33;2.37;;;16.20;99.90;;;;;;5070685;28;20762;-68
2024/02/12 12:50:18;;;;;;;6.30;2.40;;;16.50;99.90;;;;;;5071109;28;20509;-68
2024/02/12 12:52:43;;;;;;;4.80;1.70;;;17.60;99.90;;;;;;5071641;28;20208;-68
2024/02/12 12:55:13;;;;;;;2.60;2.23;;;19.60;99.90;;;;;;5071949;28;20166;-68
2024/02/12 12:57:39;;;;;;;3.60;1.47;;;20.80;86.40;;;;;;5071878;28;20182;-69
2024/02/12 13:00:15;;;;;;;5.80;1.90;;;21.80;81.00;;;;;;5071640;28;20409;-69